sensor_id;sensor_type;location;lat;lon;timestamp;P1;durP1;ratioP1;P2;durP2;ratioP2
809;SDS011;387;48.772;9.186;2022-12-16T00:01:16;80.20;;;32.20;;
809;SDS011;387;48.772;9.186;2022-12-16T00:03:51;57.80;;;28.17;;
809;SDS011;387;48.772;9.186;2022-12-16T00:06:18;80.78;;;30.55;;
809;SDS011;387;48.772;9.186;2022-12-16T00:08:44;64.95;;;28.90;;
809;SDS011;387;48.772;9.186;2022-12-16T00:11:10;66.67;;;29.73;;
809;SDS011;387;48.772;9.186;2022-12-16T00:13:36;77.80;;;30.60;;
809;SDS011;387;48.772;9.186;2022-12-16T00:16:08;68.80;;;29.25;;
809;SDS011;387;48.772;9.186;2022-12-16T00:18:35;62.08;;;28.23;;
809;SDS011;387;48.772;9.186;2022-12-16T00:21:01;67.00;;;30.73;;
809;SDS011;387;48.772;9.186;2022-12-16T00:23:27;69.75;;;30.17;;
809;SDS011;387;48.772;9.186;2022-12-16T00:25:53;69.30;;;29.60;;
809;SDS011;387;48.772;9.186;2022-12-16T00:28:19;74.60;;;30.23;;
809;SDS011;387;48.772;9.186;2022-12-16T00:30:48;71.40;;;28.55;;
809;SDS011;387;48.772;9.186;2022-12-16T00:33:16;64.70;;;28.77;;
809;SDS011;387;48.772;9.186;2022-12-16T00:35:42;74.93;;;30.10;;
809;SDS011;387;48.772;9.186;2022-12-16T00:38:08;65.63;;;29.45;;
809;SDS011;387;48.772;9.186;2022-12-16T00:40:34;69.07;;;29.83;;
809;SDS011;387;48.772;9.186;2022-12-16T00:42:59;76.03;;;30.83;;
809;SDS011;387;48.772;9.186;2022-12-16T00:45:25;68.93;;;30.40;;
809;SDS011;387;48.772;9.186;2022-12-16T00:47:51;79.33;;;32.63;;
809;SDS011;387;48.772;9.186;2022-12-16T00:50:17;69.00;;;30.27;;
809;SDS011;387;48.772;9.186;2022-12-16T00:52:44;79.18;;;30.25;;
809;SDS011;387;48.772;9.186;2022-12-16T00:55:11;78.82;;;31.27;;
809;SDS011;387;48.772;9.186;2022-12-16T00:57:37;72.27;;;30.47;;
809;SDS011;387;48.772;9.186;2022-12-16T01:00:03;81.33;;;31.00;;
809;SDS011;387;48.772;9.186;2022-12-16T01:02:30;73.80;;;31.15;;
809;SDS011;387;48.772;9.186;2022-12-16T01:04:56;67.65;;;28.15;;
809;SDS011;387;48.772;9.186;2022-12-16T01:07:21;65.77;;;28.90;;
809;SDS011;387;48.772;9.186;2022-12-16T01:09:47;80.50;;;32.10;;
809;SDS011;387;48.772;9.186;2022-12-16T01:12:13;77.87;;;32.57;;
809;SDS011;387;48.772;9.186;2022-12-16T01:14:38;82.00;;;32.23;;
809;SDS011;387;48.772;9.186;2022-12-16T01:17:04;70.90;;;30.67;;
809;SDS011;387;48.772;9.186;2022-12-16T01:19:29;74.00;;;30.20;;
809;SDS011;387;48.772;9.186;2022-12-16T01:21:55;78.10;;;31.53;;
809;SDS011;387;48.772;9.186;2022-12-16T01:24:21;69.60;;;30.80;;
809;SDS011;387;48.772;9.186;2022-12-16T01:26:46;74.20;;;31.07;;
809;SDS011;387;48.772;9.186;2022-12-16T01:29:12;79.40;;;32.07;;
809;SDS011;387;48.772;9.186;2022-12-16T01:31:37;76.30;;;30.87;;
809;SDS011;387;48.772;9.186;2022-12-16T01:34:03;65.03;;;30.83;;
809;SDS011;387;48.772;9.186;2022-12-16T01:36:29;68.13;;;28.10;;
809;SDS011;387;48.772;9.186;2022-12-16T01:38:57;66.40;;;29.20;;
809;SDS011;387;48.772;9.186;2022-12-16T01:41:23;74.85;;;31.13;;
809;SDS011;387;48.772;9.186;2022-12-16T01:43:48;73.30;;;30.63;;
809;SDS011;387;48.772;9.186;2022-12-16T01:46:21;73.10;;;29.30;;
809;SDS011;387;48.772;9.186;2022-12-16T01:48:53;69.78;;;29.60;;
809;SDS011;387;48.772;9.186;2022-12-16T01:51:37;61.33;;;26.83;;
809;SDS011;387;48.772;9.186;2022-12-16T01:54:08;78.70;;;30.45;;
809;SDS011;387;48.772;9.186;2022-12-16T01:56:41;72.22;;;28.40;;
809;SDS011;387;48.772;9.186;2022-12-16T01:59:13;70.00;;;29.35;;
809;SDS011;387;48.772;9.186;2022-12-16T02:01:42;70.82;;;30.40;;
809;SDS011;387;48.772;9.186;2022-12-16T02:04:08;67.80;;;27.73;;
809;SDS011;387;48.772;9.186;2022-12-16T02:06:33;68.10;;;29.07;;
809;SDS011;387;48.772;9.186;2022-12-16T02:08:59;66.47;;;30.30;;
809;SDS011;387;48.772;9.186;2022-12-16T02:14:24;65.43;;;30.17;;
809;SDS011;387;48.772;9.186;2022-12-16T02:25:40;66.25;;;28.00;;
809;SDS011;387;48.772;9.186;2022-12-16T02:31:35;61.90;;;26.23;;
809;SDS011;387;48.772;9.186;2022-12-16T02:36:55;68.68;;;27.88;;
809;SDS011;387;48.772;9.186;2022-12-16T02:39:54;65.60;;;29.13;;
809;SDS011;387;48.772;9.186;2022-12-16T02:44:59;71.47;;;27.70;;
809;SDS011;387;48.772;9.186;2022-12-16T02:47:25;69.57;;;29.65;;
809;SDS011;387;48.772;9.186;2022-12-16T02:49:51;62.63;;;28.60;;
809;SDS011;387;48.772;9.186;2022-12-16T02:52:20;67.13;;;27.27;;
809;SDS011;387;48.772;9.186;2022-12-16T02:54:48;57.25;;;26.77;;
809;SDS011;387;48.772;9.186;2022-12-16T03:00:09;64.97;;;29.15;;
809;SDS011;387;48.772;9.186;2022-12-16T03:05:26;70.35;;;28.95;;
809;SDS011;387;48.772;9.186;2022-12-16T03:07:59;69.03;;;30.48;;
809;SDS011;387;48.772;9.186;2022-12-16T03:10:30;67.68;;;28.98;;
809;SDS011;387;48.772;9.186;2022-12-16T03:13:00;67.50;;;29.17;;
809;SDS011;387;48.772;9.186;2022-12-16T03:15:29;68.55;;;30.25;;
809;SDS011;387;48.772;9.186;2022-12-16T03:17:57;76.53;;;31.40;;
809;SDS011;387;48.772;9.186;2022-12-16T03:20:44;65.90;;;29.00;;
809;SDS011;387;48.772;9.186;2022-12-16T03:23:24;62.50;;;24.83;;
809;SDS011;387;48.772;9.186;2022-12-16T03:25:56;63.85;;;27.05;;
809;SDS011;387;48.772;9.186;2022-12-16T03:28:31;66.65;;;26.80;;
809;SDS011;387;48.772;9.186;2022-12-16T03:31:06;64.38;;;26.75;;
809;SDS011;387;48.772;9.186;2022-12-16T03:34:16;59.78;;;25.90;;
809;SDS011;387;48.772;9.186;2022-12-16T03:36:47;63.85;;;27.40;;
809;SDS011;387;48.772;9.186;2022-12-16T03:39:15;62.55;;;27.55;;
809;SDS011;387;48.772;9.186;2022-12-16T03:41:43;64.63;;;27.73;;
809;SDS011;387;48.772;9.186;2022-12-16T03:44:12;55.88;;;25.98;;
809;SDS011;387;48.772;9.186;2022-12-16T03:46:38;62.30;;;26.80;;
809;SDS011;387;48.772;9.186;2022-12-16T03:49:04;57.37;;;26.40;;
809;SDS011;387;48.772;9.186;2022-12-16T03:51:29;54.63;;;26.20;;
809;SDS011;387;48.772;9.186;2022-12-16T03:53:55;64.80;;;27.67;;
809;SDS011;387;48.772;9.186;2022-12-16T03:56:20;53.90;;;26.60;;
809;SDS011;387;48.772;9.186;2022-12-16T03:58:46;60.50;;;28.40;;
809;SDS011;387;48.772;9.186;2022-12-16T04:01:13;64.40;;;27.80;;
809;SDS011;387;48.772;9.186;2022-12-16T04:03:39;63.58;;;28.58;;
809;SDS011;387;48.772;9.186;2022-12-16T04:06:05;64.63;;;27.67;;
809;SDS011;387;48.772;9.186;2022-12-16T04:08:30;64.10;;;26.57;;
809;SDS011;387;48.772;9.186;2022-12-16T04:10:56;60.20;;;25.17;;
809;SDS011;387;48.772;9.186;2022-12-16T04:13:40;61.47;;;24.20;;
809;SDS011;387;48.772;9.186;2022-12-16T04:16:25;57.38;;;22.23;;
809;SDS011;387;48.772;9.186;2022-12-16T04:19:13;54.78;;;21.73;;
809;SDS011;387;48.772;9.186;2022-12-16T04:22:04;50.80;;;21.02;;
809;SDS011;387;48.772;9.186;2022-12-16T04:24:52;56.50;;;24.50;;
809;SDS011;387;48.772;9.186;2022-12-16T04:27:17;50.30;;;23.00;;
809;SDS011;387;48.772;9.186;2022-12-16T04:29:49;52.08;;;21.55;;
809;SDS011;387;48.772;9.186;2022-12-16T04:32:33;54.60;;;24.48;;
809;SDS011;387;48.772;9.186;2022-12-16T04:35:17;50.47;;;23.60;;
809;SDS011;387;48.772;9.186;2022-12-16T04:38:02;50.67;;;22.10;;
809;SDS011;387;48.772;9.186;2022-12-16T04:40:46;54.55;;;23.58;;
809;SDS011;387;48.772;9.186;2022-12-16T04:43:30;45.08;;;21.80;;
809;SDS011;387;48.772;9.186;2022-12-16T04:46:14;54.05;;;23.20;;
809;SDS011;387;48.772;9.186;2022-12-16T04:48:59;41.47;;;19.60;;
809;SDS011;387;48.772;9.186;2022-12-16T04:51:43;53.60;;;19.70;;
809;SDS011;387;48.772;9.186;2022-12-16T04:54:27;47.42;;;21.65;;
809;SDS011;387;48.772;9.186;2022-12-16T04:57:11;43.20;;;19.52;;
809;SDS011;387;48.772;9.186;2022-12-16T04:59:55;42.35;;;19.38;;
809;SDS011;387;48.772;9.186;2022-12-16T05:02:39;50.60;;;21.10;;
809;SDS011;387;48.772;9.186;2022-12-16T05:05:23;49.38;;;21.15;;
809;SDS011;387;48.772;9.186;2022-12-16T05:08:07;45.40;;;21.38;;
809;SDS011;387;48.772;9.186;2022-12-16T05:10:51;45.40;;;21.48;;
809;SDS011;387;48.772;9.186;2022-12-16T05:13:35;57.78;;;22.13;;
809;SDS011;387;48.772;9.186;2022-12-16T05:16:19;47.80;;;20.58;;
809;SDS011;387;48.772;9.186;2022-12-16T05:19:03;55.47;;;23.30;;
809;SDS011;387;48.772;9.186;2022-12-16T05:21:47;52.88;;;22.30;;
809;SDS011;387;48.772;9.186;2022-12-16T05:24:31;44.42;;;20.63;;
809;SDS011;387;48.772;9.186;2022-12-16T05:27:15;42.42;;;19.65;;
809;SDS011;387;48.772;9.186;2022-12-16T05:29:59;41.70;;;18.70;;
809;SDS011;387;48.772;9.186;2022-12-16T05:32:47;45.03;;;20.65;;
809;SDS011;387;48.772;9.186;2022-12-16T05:35:31;43.30;;;20.80;;
809;SDS011;387;48.772;9.186;2022-12-16T05:38:15;44.38;;;20.92;;
809;SDS011;387;48.772;9.186;2022-12-16T05:41:04;48.30;;;21.73;;
809;SDS011;387;48.772;9.186;2022-12-16T05:43:48;49.55;;;22.92;;
809;SDS011;387;48.772;9.186;2022-12-16T05:46:40;53.70;;;21.23;;
809;SDS011;387;48.772;9.186;2022-12-16T05:49:24;52.13;;;19.85;;
809;SDS011;387;48.772;9.186;2022-12-16T05:52:08;51.10;;;22.13;;
809;SDS011;387;48.772;9.186;2022-12-16T05:54:52;42.05;;;19.42;;
809;SDS011;387;48.772;9.186;2022-12-16T05:57:36;49.03;;;21.30;;
809;SDS011;387;48.772;9.186;2022-12-16T06:00:20;43.80;;;19.98;;
809;SDS011;387;48.772;9.186;2022-12-16T06:03:04;40.53;;;19.42;;
809;SDS011;387;48.772;9.186;2022-12-16T06:05:49;44.08;;;19.58;;
809;SDS011;387;48.772;9.186;2022-12-16T06:08:33;40.05;;;19.20;;
809;SDS011;387;48.772;9.186;2022-12-16T06:11:17;47.45;;;20.45;;
809;SDS011;387;48.772;9.186;2022-12-16T06:14:01;40.53;;;19.35;;
809;SDS011;387;48.772;9.186;2022-12-16T06:16:45;43.00;;;19.70;;
809;SDS011;387;48.772;9.186;2022-12-16T06:19:29;50.38;;;23.00;;
809;SDS011;387;48.772;9.186;2022-12-16T06:22:26;45.35;;;19.85;;
809;SDS011;387;48.772;9.186;2022-12-16T06:25:10;36.78;;;17.95;;
809;SDS011;387;48.772;9.186;2022-12-16T06:27:54;38.58;;;16.75;;
809;SDS011;387;48.772;9.186;2022-12-16T06:30:38;38.05;;;18.02;;
809;SDS011;387;48.772;9.186;2022-12-16T06:33:23;44.25;;;18.77;;
809;SDS011;387;48.772;9.186;2022-12-16T06:36:07;37.00;;;17.27;;
809;SDS011;387;48.772;9.186;2022-12-16T06:38:52;38.38;;;16.80;;
809;SDS011;387;48.772;9.186;2022-12-16T06:41:38;40.63;;;17.35;;
809;SDS011;387;48.772;9.186;2022-12-16T06:44:35;35.38;;;16.75;;
809;SDS011;387;48.772;9.186;2022-12-16T06:47:20;33.47;;;16.88;;
809;SDS011;387;48.772;9.186;2022-12-16T06:50:04;34.20;;;18.95;;
809;SDS011;387;48.772;9.186;2022-12-16T06:52:49;35.05;;;18.15;;
809;SDS011;387;48.772;9.186;2022-12-16T06:55:33;39.33;;;18.23;;
809;SDS011;387;48.772;9.186;2022-12-16T06:58:17;45.85;;;20.13;;
809;SDS011;387;48.772;9.186;2022-12-16T07:01:01;38.38;;;17.60;;
809;SDS011;387;48.772;9.186;2022-12-16T07:03:45;31.77;;;16.23;;
809;SDS011;387;48.772;9.186;2022-12-16T07:06:29;33.45;;;16.45;;
809;SDS011;387;48.772;9.186;2022-12-16T07:09:13;35.70;;;17.92;;
809;SDS011;387;48.772;9.186;2022-12-16T07:11:57;36.15;;;16.60;;
809;SDS011;387;48.772;9.186;2022-12-16T07:14:41;40.72;;;18.73;;
809;SDS011;387;48.772;9.186;2022-12-16T07:17:43;38.42;;;19.58;;
809;SDS011;387;48.772;9.186;2022-12-16T07:20:28;40.65;;;17.65;;
809;SDS011;387;48.772;9.186;2022-12-16T07:23:12;34.20;;;17.48;;
809;SDS011;387;48.772;9.186;2022-12-16T07:25:57;33.63;;;18.52;;
809;SDS011;387;48.772;9.186;2022-12-16T07:28:41;46.03;;;19.90;;
809;SDS011;387;48.772;9.186;2022-12-16T07:31:25;36.38;;;16.35;;
809;SDS011;387;48.772;9.186;2022-12-16T07:34:09;33.00;;;16.80;;
809;SDS011;387;48.772;9.186;2022-12-16T07:36:53;39.10;;;17.90;;
809;SDS011;387;48.772;9.186;2022-12-16T07:39:37;34.05;;;16.80;;
809;SDS011;387;48.772;9.186;2022-12-16T07:42:21;35.60;;;18.20;;
809;SDS011;387;48.772;9.186;2022-12-16T07:45:06;40.05;;;17.90;;
809;SDS011;387;48.772;9.186;2022-12-16T07:47:51;37.72;;;16.48;;
809;SDS011;387;48.772;9.186;2022-12-16T07:50:35;34.85;;;16.85;;
809;SDS011;387;48.772;9.186;2022-12-16T07:53:20;30.60;;;15.43;;
809;SDS011;387;48.772;9.186;2022-12-16T07:56:05;34.25;;;16.83;;
809;SDS011;387;48.772;9.186;2022-12-16T07:58:49;38.08;;;15.25;;
809;SDS011;387;48.772;9.186;2022-12-16T08:01:33;38.22;;;16.52;;
809;SDS011;387;48.772;9.186;2022-12-16T08:04:17;28.45;;;14.45;;
809;SDS011;387;48.772;9.186;2022-12-16T08:07:01;32.40;;;15.32;;
809;SDS011;387;48.772;9.186;2022-12-16T08:09:45;31.50;;;14.25;;
809;SDS011;387;48.772;9.186;2022-12-16T08:12:49;32.17;;;14.50;;
809;SDS011;387;48.772;9.186;2022-12-16T08:15:33;24.92;;;13.13;;
809;SDS011;387;48.772;9.186;2022-12-16T08:18:18;32.38;;;13.98;;
809;SDS011;387;48.772;9.186;2022-12-16T08:21:02;25.40;;;12.63;;
809;SDS011;387;48.772;9.186;2022-12-16T08:23:46;28.85;;;13.13;;
809;SDS011;387;48.772;9.186;2022-12-16T08:26:30;34.35;;;13.98;;
809;SDS011;387;48.772;9.186;2022-12-16T08:29:14;31.27;;;13.43;;
809;SDS011;387;48.772;9.186;2022-12-16T08:31:58;27.73;;;13.18;;
809;SDS011;387;48.772;9.186;2022-12-16T08:34:42;29.80;;;13.55;;
809;SDS011;387;48.772;9.186;2022-12-16T08:37:26;30.17;;;13.90;;
809;SDS011;387;48.772;9.186;2022-12-16T08:40:10;24.52;;;12.50;;
809;SDS011;387;48.772;9.186;2022-12-16T08:42:56;29.10;;;14.13;;
809;SDS011;387;48.772;9.186;2022-12-16T08:45:41;41.00;;;15.60;;
809;SDS011;387;48.772;9.186;2022-12-16T08:48:25;29.55;;;14.45;;
809;SDS011;387;48.772;9.186;2022-12-16T08:51:11;30.00;;;14.98;;
809;SDS011;387;48.772;9.186;2022-12-16T08:53:56;32.00;;;14.35;;
809;SDS011;387;48.772;9.186;2022-12-16T08:56:40;33.50;;;13.93;;
809;SDS011;387;48.772;9.186;2022-12-16T08:59:24;26.77;;;13.13;;
809;SDS011;387;48.772;9.186;2022-12-16T09:02:09;31.88;;;12.80;;
809;SDS011;387;48.772;9.186;2022-12-16T09:04:54;31.65;;;14.40;;
809;SDS011;387;48.772;9.186;2022-12-16T09:07:38;30.25;;;13.43;;
809;SDS011;387;48.772;9.186;2022-12-16T09:10:22;27.85;;;13.20;;
809;SDS011;387;48.772;9.186;2022-12-16T09:13:13;23.55;;;11.98;;
809;SDS011;387;48.772;9.186;2022-12-16T09:15:58;22.88;;;11.10;;
809;SDS011;387;48.772;9.186;2022-12-16T09:18:43;27.25;;;12.45;;
809;SDS011;387;48.772;9.186;2022-12-16T09:21:27;29.45;;;12.10;;
809;SDS011;387;48.772;9.186;2022-12-16T09:24:11;24.08;;;11.00;;
809;SDS011;387;48.772;9.186;2022-12-16T09:26:55;24.95;;;10.98;;
809;SDS011;387;48.772;9.186;2022-12-16T09:29:39;27.10;;;11.50;;
809;SDS011;387;48.772;9.186;2022-12-16T09:32:23;23.90;;;11.02;;
809;SDS011;387;48.772;9.186;2022-12-16T09:35:08;22.75;;;11.50;;
809;SDS011;387;48.772;9.186;2022-12-16T09:37:52;28.60;;;12.63;;
809;SDS011;387;48.772;9.186;2022-12-16T09:40:40;34.13;;;13.07;;
809;SDS011;387;48.772;9.186;2022-12-16T09:43:43;25.48;;;12.00;;
809;SDS011;387;48.772;9.186;2022-12-16T09:49:47;22.08;;;11.25;;
809;SDS011;387;48.772;9.186;2022-12-16T09:52:40;25.65;;;10.60;;
809;SDS011;387;48.772;9.186;2022-12-16T09:55:31;24.90;;;11.25;;
809;SDS011;387;48.772;9.186;2022-12-16T09:58:26;28.40;;;11.73;;
809;SDS011;387;48.772;9.186;2022-12-16T10:01:15;17.63;;;10.38;;
809;SDS011;387;48.772;9.186;2022-12-16T10:03:59;23.02;;;10.50;;
809;SDS011;387;48.772;9.186;2022-12-16T10:06:45;24.42;;;10.75;;
809;SDS011;387;48.772;9.186;2022-12-16T10:15:55;27.10;;;12.15;;
809;SDS011;387;48.772;9.186;2022-12-16T10:18:59;23.55;;;11.88;;
809;SDS011;387;48.772;9.186;2022-12-16T10:21:58;24.50;;;11.95;;
809;SDS011;387;48.772;9.186;2022-12-16T10:24:49;20.73;;;10.10;;
809;SDS011;387;48.772;9.186;2022-12-16T10:27:57;18.45;;;9.68;;
809;SDS011;387;48.772;9.186;2022-12-16T10:30:49;18.92;;;10.63;;
809;SDS011;387;48.772;9.186;2022-12-16T10:33:34;20.17;;;10.00;;
809;SDS011;387;48.772;9.186;2022-12-16T10:36:19;25.48;;;11.63;;
809;SDS011;387;48.772;9.186;2022-12-16T10:39:11;20.70;;;10.02;;
809;SDS011;387;48.772;9.186;2022-12-16T10:41:57;21.63;;;10.40;;
809;SDS011;387;48.772;9.186;2022-12-16T10:44:49;20.50;;;9.80;;
809;SDS011;387;48.772;9.186;2022-12-16T10:47:37;21.92;;;10.25;;
809;SDS011;387;48.772;9.186;2022-12-16T10:50:21;21.10;;;10.50;;
809;SDS011;387;48.772;9.186;2022-12-16T10:53:10;23.42;;;9.40;;
809;SDS011;387;48.772;9.186;2022-12-16T10:56:02;23.05;;;9.82;;
809;SDS011;387;48.772;9.186;2022-12-16T10:58:59;21.45;;;10.48;;
809;SDS011;387;48.772;9.186;2022-12-16T11:01:56;24.92;;;10.57;;
809;SDS011;387;48.772;9.186;2022-12-16T11:04:45;22.38;;;10.60;;
809;SDS011;387;48.772;9.186;2022-12-16T11:10:42;24.65;;;9.90;;
809;SDS011;387;48.772;9.186;2022-12-16T11:16:12;21.38;;;10.52;;
809;SDS011;387;48.772;9.186;2022-12-16T11:19:02;20.02;;;9.40;;
809;SDS011;387;48.772;9.186;2022-12-16T11:21:47;20.73;;;10.10;;
809;SDS011;387;48.772;9.186;2022-12-16T11:24:32;20.13;;;10.45;;
809;SDS011;387;48.772;9.186;2022-12-16T11:33:23;21.40;;;10.40;;
809;SDS011;387;48.772;9.186;2022-12-16T11:36:12;24.60;;;10.23;;
809;SDS011;387;48.772;9.186;2022-12-16T11:39:00;19.52;;;9.25;;
809;SDS011;387;48.772;9.186;2022-12-16T11:41:49;18.55;;;9.52;;
809;SDS011;387;48.772;9.186;2022-12-16T11:44:46;19.20;;;9.55;;
809;SDS011;387;48.772;9.186;2022-12-16T11:50:22;21.00;;;9.68;;
809;SDS011;387;48.772;9.186;2022-12-16T11:53:20;22.70;;;9.95;;
809;SDS011;387;48.772;9.186;2022-12-16T11:56:14;16.20;;;8.48;;
809;SDS011;387;48.772;9.186;2022-12-16T11:59:02;17.00;;;7.95;;
809;SDS011;387;48.772;9.186;2022-12-16T12:01:54;16.98;;;8.88;;
809;SDS011;387;48.772;9.186;2022-12-16T12:04:44;14.85;;;8.65;;
809;SDS011;387;48.772;9.186;2022-12-16T12:07:44;19.45;;;9.13;;
809;SDS011;387;48.772;9.186;2022-12-16T12:10:45;15.85;;;7.75;;
809;SDS011;387;48.772;9.186;2022-12-16T12:14:00;20.08;;;8.50;;
809;SDS011;387;48.772;9.186;2022-12-16T12:23:14;20.67;;;8.50;;
809;SDS011;387;48.772;9.186;2022-12-16T12:26:12;18.13;;;8.93;;
809;SDS011;387;48.772;9.186;2022-12-16T12:29:04;20.77;;;9.73;;
809;SDS011;387;48.772;9.186;2022-12-16T12:32:18;17.60;;;9.15;;
809;SDS011;387;48.772;9.186;2022-12-16T12:35:25;18.63;;;9.15;;
809;SDS011;387;48.772;9.186;2022-12-16T12:38:15;19.27;;;10.85;;
809;SDS011;387;48.772;9.186;2022-12-16T12:41:10;20.00;;;10.27;;
809;SDS011;387;48.772;9.186;2022-12-16T12:47:09;23.50;;;10.23;;
809;SDS011;387;48.772;9.186;2022-12-16T12:58:53;22.13;;;9.82;;
809;SDS011;387;48.772;9.186;2022-12-16T13:01:42;17.25;;;9.52;;
809;SDS011;387;48.772;9.186;2022-12-16T13:04:28;20.63;;;9.55;;
809;SDS011;387;48.772;9.186;2022-12-16T13:07:15;18.58;;;10.90;;
809;SDS011;387;48.772;9.186;2022-12-16T13:16:13;18.77;;;10.93;;
809;SDS011;387;48.772;9.186;2022-12-16T13:28:20;26.60;;;12.80;;
809;SDS011;387;48.772;9.186;2022-12-16T13:31:16;22.40;;;11.85;;
809;SDS011;387;48.772;9.186;2022-12-16T13:34:02;20.65;;;11.38;;
809;SDS011;387;48.772;9.186;2022-12-16T13:36:53;22.95;;;12.15;;
809;SDS011;387;48.772;9.186;2022-12-16T13:39:40;26.35;;;12.18;;
809;SDS011;387;48.772;9.186;2022-12-16T13:43:13;22.88;;;13.10;;
809;SDS011;387;48.772;9.186;2022-12-16T13:45:39;24.38;;;12.15;;
809;SDS011;387;48.772;9.186;2022-12-16T13:48:46;26.05;;;11.93;;
809;SDS011;387;48.772;9.186;2022-12-16T13:57:15;24.63;;;11.07;;
809;SDS011;387;48.772;9.186;2022-12-16T14:00:04;25.35;;;11.00;;
809;SDS011;387;48.772;9.186;2022-12-16T14:02:58;22.27;;;11.27;;
809;SDS011;387;48.772;9.186;2022-12-16T14:05:45;21.27;;;10.60;;
809;SDS011;387;48.772;9.186;2022-12-16T14:08:32;28.92;;;9.95;;
809;SDS011;387;48.772;9.186;2022-12-16T14:11:37;19.50;;;10.75;;
809;SDS011;387;48.772;9.186;2022-12-16T14:14:31;24.55;;;11.07;;
809;SDS011;387;48.772;9.186;2022-12-16T14:17:31;21.70;;;10.30;;
809;SDS011;387;48.772;9.186;2022-12-16T14:26:16;21.42;;;10.23;;
809;SDS011;387;48.772;9.186;2022-12-16T14:29:02;25.25;;;11.75;;
809;SDS011;387;48.772;9.186;2022-12-16T14:32:18;19.80;;;10.50;;
809;SDS011;387;48.772;9.186;2022-12-16T14:41:12;25.25;;;10.57;;
809;SDS011;387;48.772;9.186;2022-12-16T14:44:02;23.75;;;11.23;;
809;SDS011;387;48.772;9.186;2022-12-16T14:46:58;23.27;;;9.23;;
809;SDS011;387;48.772;9.186;2022-12-16T14:49:50;18.60;;;8.90;;
809;SDS011;387;48.772;9.186;2022-12-16T14:52:35;18.00;;;10.23;;
809;SDS011;387;48.772;9.186;2022-12-16T14:55:33;27.60;;;10.45;;
809;SDS011;387;48.772;9.186;2022-12-16T14:58:19;20.75;;;9.40;;
809;SDS011;387;48.772;9.186;2022-12-16T15:01:19;19.63;;;10.32;;
809;SDS011;387;48.772;9.186;2022-12-16T15:04:08;20.67;;;9.88;;
809;SDS011;387;48.772;9.186;2022-12-16T15:06:59;16.75;;;9.23;;
809;SDS011;387;48.772;9.186;2022-12-16T15:09:47;18.45;;;9.40;;
809;SDS011;387;48.772;9.186;2022-12-16T15:12:37;22.38;;;10.80;;
809;SDS011;387;48.772;9.186;2022-12-16T15:15:47;22.10;;;10.18;;
809;SDS011;387;48.772;9.186;2022-12-16T15:18:32;18.17;;;10.15;;
809;SDS011;387;48.772;9.186;2022-12-16T15:21:23;18.08;;;9.88;;
809;SDS011;387;48.772;9.186;2022-12-16T15:24:08;29.83;;;10.40;;
809;SDS011;387;48.772;9.186;2022-12-16T15:33:21;26.40;;;10.75;;
809;SDS011;387;48.772;9.186;2022-12-16T15:36:13;19.60;;;10.40;;
809;SDS011;387;48.772;9.186;2022-12-16T15:39:09;23.00;;;10.40;;
809;SDS011;387;48.772;9.186;2022-12-16T15:45:27;25.33;;;11.98;;
809;SDS011;387;48.772;9.186;2022-12-16T15:48:30;20.60;;;10.27;;
809;SDS011;387;48.772;9.186;2022-12-16T15:54:16;21.45;;;10.07;;
809;SDS011;387;48.772;9.186;2022-12-16T15:57:00;21.92;;;10.93;;
809;SDS011;387;48.772;9.186;2022-12-16T15:59:55;21.88;;;9.85;;
809;SDS011;387;48.772;9.186;2022-12-16T16:02:45;25.95;;;10.30;;
809;SDS011;387;48.772;9.186;2022-12-16T16:05:51;20.48;;;10.85;;
809;SDS011;387;48.772;9.186;2022-12-16T16:08:35;26.77;;;12.25;;
809;SDS011;387;48.772;9.186;2022-12-16T16:11:19;25.30;;;10.73;;
809;SDS011;387;48.772;9.186;2022-12-16T16:14:03;19.17;;;10.80;;
809;SDS011;387;48.772;9.186;2022-12-16T16:16:47;23.42;;;10.55;;
809;SDS011;387;48.772;9.186;2022-12-16T16:19:32;20.52;;;9.90;;
809;SDS011;387;48.772;9.186;2022-12-16T16:22:16;23.15;;;10.35;;
809;SDS011;387;48.772;9.186;2022-12-16T16:25:01;17.98;;;10.13;;
809;SDS011;387;48.772;9.186;2022-12-16T16:27:45;24.35;;;10.65;;
809;SDS011;387;48.772;9.186;2022-12-16T16:30:30;20.30;;;11.10;;
809;SDS011;387;48.772;9.186;2022-12-16T16:33:15;23.40;;;11.23;;
809;SDS011;387;48.772;9.186;2022-12-16T16:35:59;31.10;;;11.70;;
809;SDS011;387;48.772;9.186;2022-12-16T16:38:43;22.40;;;11.65;;
809;SDS011;387;48.772;9.186;2022-12-16T16:41:27;24.65;;;11.45;;
809;SDS011;387;48.772;9.186;2022-12-16T16:44:11;29.20;;;13.25;;
809;SDS011;387;48.772;9.186;2022-12-16T16:46:55;27.13;;;12.15;;
809;SDS011;387;48.772;9.186;2022-12-16T16:49:44;20.73;;;12.52;;
809;SDS011;387;48.772;9.186;2022-12-16T16:52:30;21.80;;;11.30;;
809;SDS011;387;48.772;9.186;2022-12-16T16:55:16;26.95;;;13.80;;
809;SDS011;387;48.772;9.186;2022-12-16T16:58:05;30.17;;;12.43;;
809;SDS011;387;48.772;9.186;2022-12-16T17:01:07;32.97;;;14.43;;
809;SDS011;387;48.772;9.186;2022-12-16T17:03:55;26.33;;;12.48;;
809;SDS011;387;48.772;9.186;2022-12-16T17:06:40;27.70;;;12.73;;
809;SDS011;387;48.772;9.186;2022-12-16T17:09:24;26.00;;;13.15;;
809;SDS011;387;48.772;9.186;2022-12-16T17:12:13;26.05;;;13.50;;
809;SDS011;387;48.772;9.186;2022-12-16T17:15:19;25.52;;;12.48;;
809;SDS011;387;48.772;9.186;2022-12-16T17:18:06;22.73;;;12.07;;
809;SDS011;387;48.772;9.186;2022-12-16T17:20:51;26.63;;;12.65;;
809;SDS011;387;48.772;9.186;2022-12-16T17:23:35;22.25;;;12.30;;
809;SDS011;387;48.772;9.186;2022-12-16T17:26:20;25.55;;;13.73;;
809;SDS011;387;48.772;9.186;2022-12-16T17:29:05;34.38;;;14.93;;
809;SDS011;387;48.772;9.186;2022-12-16T17:31:49;24.67;;;12.68;;
809;SDS011;387;48.772;9.186;2022-12-16T17:34:33;30.30;;;15.05;;
809;SDS011;387;48.772;9.186;2022-12-16T17:37:17;29.38;;;13.30;;
809;SDS011;387;48.772;9.186;2022-12-16T17:40:01;26.75;;;14.27;;
809;SDS011;387;48.772;9.186;2022-12-16T17:42:45;25.25;;;12.40;;
809;SDS011;387;48.772;9.186;2022-12-16T17:45:29;29.42;;;14.45;;
809;SDS011;387;48.772;9.186;2022-12-16T17:48:13;30.02;;;14.52;;
809;SDS011;387;48.772;9.186;2022-12-16T17:51:00;23.27;;;13.55;;
809;SDS011;387;48.772;9.186;2022-12-16T17:53:45;33.30;;;14.70;;
809;SDS011;387;48.772;9.186;2022-12-16T17:56:29;31.13;;;14.98;;
809;SDS011;387;48.772;9.186;2022-12-16T17:59:29;28.52;;;12.90;;
809;SDS011;387;48.772;9.186;2022-12-16T18:02:13;34.65;;;15.15;;
809;SDS011;387;48.772;9.186;2022-12-16T18:04:58;28.70;;;14.52;;
809;SDS011;387;48.772;9.186;2022-12-16T18:07:42;28.88;;;14.05;;
809;SDS011;387;48.772;9.186;2022-12-16T18:10:26;22.48;;;13.35;;
809;SDS011;387;48.772;9.186;2022-12-16T18:13:10;27.98;;;14.73;;
809;SDS011;387;48.772;9.186;2022-12-16T18:15:54;31.10;;;14.82;;
809;SDS011;387;48.772;9.186;2022-12-16T18:18:38;33.45;;;15.65;;
809;SDS011;387;48.772;9.186;2022-12-16T18:21:22;32.20;;;14.52;;
809;SDS011;387;48.772;9.186;2022-12-16T18:24:07;34.00;;;15.52;;
809;SDS011;387;48.772;9.186;2022-12-16T18:26:51;37.35;;;18.08;;
809;SDS011;387;48.772;9.186;2022-12-16T18:29:36;34.47;;;15.10;;
809;SDS011;387;48.772;9.186;2022-12-16T18:32:20;28.10;;;15.00;;
809;SDS011;387;48.772;9.186;2022-12-16T18:35:04;27.20;;;13.85;;
809;SDS011;387;48.772;9.186;2022-12-16T18:37:48;33.72;;;14.57;;
809;SDS011;387;48.772;9.186;2022-12-16T18:40:32;31.67;;;14.88;;
809;SDS011;387;48.772;9.186;2022-12-16T18:43:17;26.10;;;13.20;;
809;SDS011;387;48.772;9.186;2022-12-16T18:46:01;35.72;;;15.98;;
809;SDS011;387;48.772;9.186;2022-12-16T18:48:45;32.97;;;14.52;;
809;SDS011;387;48.772;9.186;2022-12-16T18:51:29;28.85;;;13.63;;